sensor_id;sensor_type;location;lat;lon;timestamp;P1;durP1;ratioP1;P2;durP2;ratioP2
14316;SDS011;7242;50.858;6.586;2022-12-01T00:01:25;29.63;;;21.53;;
14316;SDS011;7242;50.858;6.586;2022-12-01T00:04:26;30.03;;;22.83;;
14316;SDS011;7242;50.858;6.586;2022-12-01T00:07:27;29.13;;;22.20;;
14316;SDS011;7242;50.858;6.586;2022-12-01T00:10:28;26.70;;;20.97;;
14316;SDS011;7242;50.858;6.586;2022-12-01T00:13:29;28.27;;;20.70;;
14316;SDS011;7242;50.858;6.586;2022-12-01T00:16:31;25.37;;;20.53;;
14316;SDS011;7242;50.858;6.586;2022-12-01T00:19:32;28.07;;;21.37;;
14316;SDS011;7242;50.858;6.586;2022-12-01T00:22:33;27.60;;;21.00;;
14316;SDS011;7242;50.858;6.586;2022-12-01T00:25:34;30.03;;;21.90;;
14316;SDS011;7242;50.858;6.586;2022-12-01T00:28:36;27.27;;;20.77;;
14316;SDS011;7242;50.858;6.586;2022-12-01T00:31:38;27.13;;;21.47;;
14316;SDS011;7242;50.858;6.586;2022-12-01T00:34:39;26.87;;;20.80;;
14316;SDS011;7242;50.858;6.586;2022-12-01T00:37:40;26.57;;;20.00;;
14316;SDS011;7242;50.858;6.586;2022-12-01T00:40:42;26.13;;;19.83;;
14316;SDS011;7242;50.858;6.586;2022-12-01T00:43:43;26.60;;;19.73;;
14316;SDS011;7242;50.858;6.586;2022-12-01T00:46:44;25.20;;;19.87;;
14316;SDS011;7242;50.858;6.586;2022-12-01T00:49:45;26.23;;;18.90;;
14316;SDS011;7242;50.858;6.586;2022-12-01T00:52:47;26.30;;;18.50;;
14316;SDS011;7242;50.858;6.586;2022-12-01T00:55:48;22.63;;;17.83;;
14316;SDS011;7242;50.858;6.586;2022-12-01T00:58:49;20.50;;;15.97;;
14316;SDS011;7242;50.858;6.586;2022-12-01T01:01:50;21.60;;;15.43;;
14316;SDS011;7242;50.858;6.586;2022-12-01T01:04:51;20.87;;;15.80;;
14316;SDS011;7242;50.858;6.586;2022-12-01T01:07:53;19.33;;;14.57;;
14316;SDS011;7242;50.858;6.586;2022-12-01T01:10:54;18.27;;;14.50;;
14316;SDS011;7242;50.858;6.586;2022-12-01T01:13:55;20.23;;;15.07;;
14316;SDS011;7242;50.858;6.586;2022-12-01T01:16:56;20.13;;;16.00;;
14316;SDS011;7242;50.858;6.586;2022-12-01T01:19:57;20.90;;;15.73;;
14316;SDS011;7242;50.858;6.586;2022-12-01T01:22:59;22.60;;;15.97;;
14316;SDS011;7242;50.858;6.586;2022-12-01T01:26:05;20.63;;;15.63;;
14316;SDS011;7242;50.858;6.586;2022-12-01T01:29:07;18.97;;;15.27;;
14316;SDS011;7242;50.858;6.586;2022-12-01T01:32:08;20.03;;;15.30;;
14316;SDS011;7242;50.858;6.586;2022-12-01T01:35:10;19.73;;;15.40;;
14316;SDS011;7242;50.858;6.586;2022-12-01T01:38:11;19.87;;;15.80;;
14316;SDS011;7242;50.858;6.586;2022-12-01T01:41:12;20.20;;;15.67;;
14316;SDS011;7242;50.858;6.586;2022-12-01T01:47:53;20.83;;;15.90;;
14316;SDS011;7242;50.858;6.586;2022-12-01T01:50:58;21.80;;;16.43;;
14316;SDS011;7242;50.858;6.586;2022-12-01T01:54:01;21.20;;;16.80;;
14316;SDS011;7242;50.858;6.586;2022-12-01T01:57:06;20.57;;;16.47;;
14316;SDS011;7242;50.858;6.586;2022-12-01T02:00:12;24.40;;;17.20;;
14316;SDS011;7242;50.858;6.586;2022-12-01T02:03:17;21.47;;;15.90;;
14316;SDS011;7242;50.858;6.586;2022-12-01T02:06:19;24.23;;;17.40;;
14316;SDS011;7242;50.858;6.586;2022-12-01T02:09:22;23.83;;;16.37;;
14316;SDS011;7242;50.858;6.586;2022-12-01T02:13:10;25.10;;;16.90;;
14316;SDS011;7242;50.858;6.586;2022-12-01T02:22:28;26.33;;;17.77;;
14316;SDS011;7242;50.858;6.586;2022-12-01T02:26:01;25.83;;;18.03;;
14316;SDS011;7242;50.858;6.586;2022-12-01T02:38:57;30.53;;;19.73;;
14316;SDS011;7242;50.858;6.586;2022-12-01T02:42:18;28.77;;;19.97;;
14316;SDS011;7242;50.858;6.586;2022-12-01T02:48:58;31.20;;;20.67;;
14316;SDS011;7242;50.858;6.586;2022-12-01T02:52:03;30.57;;;21.23;;
14316;SDS011;7242;50.858;6.586;2022-12-01T02:55:05;32.93;;;22.30;;
14316;SDS011;7242;50.858;6.586;2022-12-01T02:58:13;33.20;;;21.90;;
14316;SDS011;7242;50.858;6.586;2022-12-01T03:08:05;34.27;;;22.10;;
14316;SDS011;7242;50.858;6.586;2022-12-01T03:11:23;34.17;;;22.47;;
14316;SDS011;7242;50.858;6.586;2022-12-01T03:24:25;27.83;;;20.77;;
14316;SDS011;7242;50.858;6.586;2022-12-01T03:27:32;27.67;;;20.03;;
14316;SDS011;7242;50.858;6.586;2022-12-01T03:30:36;30.90;;;20.77;;
14316;SDS011;7242;50.858;6.586;2022-12-01T03:33:46;32.00;;;21.13;;
14316;SDS011;7242;50.858;6.586;2022-12-01T03:37:00;30.73;;;20.97;;
14316;SDS011;7242;50.858;6.586;2022-12-01T03:40:17;29.00;;;20.30;;
14316;SDS011;7242;50.858;6.586;2022-12-01T03:43:26;31.63;;;21.83;;
14316;SDS011;7242;50.858;6.586;2022-12-01T03:49:44;30.43;;;20.47;;
14316;SDS011;7242;50.858;6.586;2022-12-01T03:52:57;31.87;;;20.97;;
14316;SDS011;7242;50.858;6.586;2022-12-01T03:56:09;28.20;;;19.70;;
14316;SDS011;7242;50.858;6.586;2022-12-01T03:59:11;29.87;;;19.97;;
14316;SDS011;7242;50.858;6.586;2022-12-01T04:02:15;26.87;;;19.83;;
14316;SDS011;7242;50.858;6.586;2022-12-01T04:05:17;29.50;;;19.97;;
14316;SDS011;7242;50.858;6.586;2022-12-01T04:08:18;32.53;;;20.83;;
14316;SDS011;7242;50.858;6.586;2022-12-01T04:11:19;29.40;;;20.83;;
14316;SDS011;7242;50.858;6.586;2022-12-01T04:14:39;28.07;;;20.17;;
14316;SDS011;7242;50.858;6.586;2022-12-01T04:17:40;34.03;;;21.10;;
14316;SDS011;7242;50.858;6.586;2022-12-01T04:20:44;29.77;;;20.63;;
14316;SDS011;7242;50.858;6.586;2022-12-01T04:23:45;29.17;;;20.70;;
14316;SDS011;7242;50.858;6.586;2022-12-01T04:26:59;35.70;;;21.77;;
14316;SDS011;7242;50.858;6.586;2022-12-01T04:30:00;33.47;;;20.90;;
14316;SDS011;7242;50.858;6.586;2022-12-01T04:33:01;36.17;;;22.37;;
14316;SDS011;7242;50.858;6.586;2022-12-01T04:36:02;35.33;;;22.00;;
14316;SDS011;7242;50.858;6.586;2022-12-01T04:39:04;33.43;;;21.53;;
14316;SDS011;7242;50.858;6.586;2022-12-01T04:42:05;36.00;;;22.67;;
14316;SDS011;7242;50.858;6.586;2022-12-01T04:45:06;40.23;;;23.27;;
14316;SDS011;7242;50.858;6.586;2022-12-01T04:48:08;34.17;;;22.87;;
14316;SDS011;7242;50.858;6.586;2022-12-01T04:51:09;37.63;;;22.90;;
14316;SDS011;7242;50.858;6.586;2022-12-01T04:54:10;36.33;;;23.73;;
14316;SDS011;7242;50.858;6.586;2022-12-01T04:57:11;38.77;;;24.87;;
14316;SDS011;7242;50.858;6.586;2022-12-01T05:00:13;35.20;;;23.67;;
14316;SDS011;7242;50.858;6.586;2022-12-01T05:03:14;45.13;;;25.73;;
14316;SDS011;7242;50.858;6.586;2022-12-01T05:06:17;41.20;;;23.87;;
14316;SDS011;7242;50.858;6.586;2022-12-01T05:09:23;37.47;;;22.80;;
14316;SDS011;7242;50.858;6.586;2022-12-01T05:12:24;43.53;;;25.93;;
14316;SDS011;7242;50.858;6.586;2022-12-01T05:15:25;39.57;;;24.60;;
14316;SDS011;7242;50.858;6.586;2022-12-01T05:18:26;44.90;;;25.10;;
14316;SDS011;7242;50.858;6.586;2022-12-01T05:21:28;45.67;;;25.90;;
14316;SDS011;7242;50.858;6.586;2022-12-01T05:24:29;48.80;;;25.73;;
14316;SDS011;7242;50.858;6.586;2022-12-01T05:27:30;44.73;;;25.33;;
14316;SDS011;7242;50.858;6.586;2022-12-01T05:30:31;45.57;;;25.90;;
14316;SDS011;7242;50.858;6.586;2022-12-01T05:33:32;45.93;;;25.37;;
14316;SDS011;7242;50.858;6.586;2022-12-01T05:36:33;40.87;;;24.60;;
14316;SDS011;7242;50.858;6.586;2022-12-01T05:39:34;45.97;;;24.57;;
14316;SDS011;7242;50.858;6.586;2022-12-01T05:42:36;43.30;;;24.33;;
14316;SDS011;7242;50.858;6.586;2022-12-01T05:45:36;43.60;;;23.93;;
14316;SDS011;7242;50.858;6.586;2022-12-01T05:48:37;43.97;;;24.80;;
14316;SDS011;7242;50.858;6.586;2022-12-01T05:51:39;47.77;;;24.80;;
14316;SDS011;7242;50.858;6.586;2022-12-01T05:54:40;43.10;;;25.23;;
14316;SDS011;7242;50.858;6.586;2022-12-01T05:57:41;51.90;;;25.77;;
14316;SDS011;7242;50.858;6.586;2022-12-01T06:00:42;53.43;;;26.80;;
14316;SDS011;7242;50.858;6.586;2022-12-01T06:03:43;57.63;;;28.87;;
14316;SDS011;7242;50.858;6.586;2022-12-01T06:06:44;61.07;;;31.77;;
14316;SDS011;7242;50.858;6.586;2022-12-01T06:09:46;55.40;;;29.40;;
14316;SDS011;7242;50.858;6.586;2022-12-01T06:12:47;59.30;;;30.87;;
14316;SDS011;7242;50.858;6.586;2022-12-01T06:15:58;56.20;;;30.47;;
14316;SDS011;7242;50.858;6.586;2022-12-01T06:19:01;51.33;;;28.53;;
14316;SDS011;7242;50.858;6.586;2022-12-01T06:22:02;47.27;;;27.90;;
14316;SDS011;7242;50.858;6.586;2022-12-01T06:25:04;52.17;;;28.60;;
14316;SDS011;7242;50.858;6.586;2022-12-01T06:28:05;48.07;;;28.60;;
14316;SDS011;7242;50.858;6.586;2022-12-01T06:31:06;50.90;;;29.70;;
14316;SDS011;7242;50.858;6.586;2022-12-01T06:34:07;50.17;;;28.27;;
14316;SDS011;7242;50.858;6.586;2022-12-01T06:37:09;48.23;;;27.80;;
14316;SDS011;7242;50.858;6.586;2022-12-01T06:40:11;49.17;;;28.03;;
14316;SDS011;7242;50.858;6.586;2022-12-01T06:43:12;47.80;;;27.80;;
14316;SDS011;7242;50.858;6.586;2022-12-01T06:46:13;46.50;;;26.57;;
14316;SDS011;7242;50.858;6.586;2022-12-01T06:49:14;44.20;;;26.63;;
14316;SDS011;7242;50.858;6.586;2022-12-01T06:52:15;41.43;;;25.60;;
14316;SDS011;7242;50.858;6.586;2022-12-01T06:55:16;38.63;;;24.07;;
14316;SDS011;7242;50.858;6.586;2022-12-01T06:58:18;38.00;;;23.97;;
14316;SDS011;7242;50.858;6.586;2022-12-01T07:01:20;36.33;;;23.00;;
14316;SDS011;7242;50.858;6.586;2022-12-01T07:04:21;34.13;;;22.47;;
14316;SDS011;7242;50.858;6.586;2022-12-01T07:07:22;35.23;;;21.20;;
14316;SDS011;7242;50.858;6.586;2022-12-01T07:10:23;30.80;;;20.93;;
14316;SDS011;7242;50.858;6.586;2022-12-01T07:13:24;32.17;;;20.63;;
14316;SDS011;7242;50.858;6.586;2022-12-01T07:16:25;30.90;;;20.40;;
14316;SDS011;7242;50.858;6.586;2022-12-01T07:19:27;35.90;;;21.33;;
14316;SDS011;7242;50.858;6.586;2022-12-01T07:22:28;31.53;;;20.33;;
14316;SDS011;7242;50.858;6.586;2022-12-01T07:25:29;31.30;;;20.20;;
14316;SDS011;7242;50.858;6.586;2022-12-01T07:28:30;30.90;;;20.37;;
14316;SDS011;7242;50.858;6.586;2022-12-01T07:31:32;31.27;;;20.43;;
14316;SDS011;7242;50.858;6.586;2022-12-01T07:34:33;28.23;;;19.63;;
14316;SDS011;7242;50.858;6.586;2022-12-01T07:37:33;33.20;;;21.20;;
14316;SDS011;7242;50.858;6.586;2022-12-01T07:40:35;28.70;;;20.93;;
14316;SDS011;7242;50.858;6.586;2022-12-01T07:43:36;29.13;;;20.37;;
14316;SDS011;7242;50.858;6.586;2022-12-01T07:46:37;32.53;;;21.03;;
14316;SDS011;7242;50.858;6.586;2022-12-01T07:49:39;30.80;;;19.87;;
14316;SDS011;7242;50.858;6.586;2022-12-01T07:52:40;30.47;;;20.50;;
14316;SDS011;7242;50.858;6.586;2022-12-01T07:55:47;34.73;;;22.07;;
14316;SDS011;7242;50.858;6.586;2022-12-01T07:58:49;29.57;;;20.43;;
14316;SDS011;7242;50.858;6.586;2022-12-01T08:01:50;30.20;;;21.47;;
14316;SDS011;7242;50.858;6.586;2022-12-01T08:04:51;32.03;;;20.40;;
14316;SDS011;7242;50.858;6.586;2022-12-01T08:07:53;29.67;;;20.43;;
14316;SDS011;7242;50.858;6.586;2022-12-01T08:10:57;31.70;;;21.33;;
14316;SDS011;7242;50.858;6.586;2022-12-01T08:14:03;33.67;;;23.07;;
14316;SDS011;7242;50.858;6.586;2022-12-01T08:17:04;32.07;;;22.60;;
14316;SDS011;7242;50.858;6.586;2022-12-01T08:20:06;32.57;;;22.17;;
14316;SDS011;7242;50.858;6.586;2022-12-01T08:23:07;32.97;;;23.27;;
14316;SDS011;7242;50.858;6.586;2022-12-01T08:26:13;33.60;;;22.30;;
14316;SDS011;7242;50.858;6.586;2022-12-01T08:29:15;32.23;;;21.43;;
14316;SDS011;7242;50.858;6.586;2022-12-01T08:32:17;32.70;;;22.70;;
14316;SDS011;7242;50.858;6.586;2022-12-01T08:35:18;35.23;;;22.97;;
14316;SDS011;7242;50.858;6.586;2022-12-01T08:38:19;32.57;;;21.77;;
14316;SDS011;7242;50.858;6.586;2022-12-01T08:41:20;34.47;;;23.63;;
14316;SDS011;7242;50.858;6.586;2022-12-01T08:44:23;37.07;;;24.47;;
14316;SDS011;7242;50.858;6.586;2022-12-01T08:47:26;36.20;;;22.97;;
14316;SDS011;7242;50.858;6.586;2022-12-01T08:50:28;36.83;;;24.90;;
14316;SDS011;7242;50.858;6.586;2022-12-01T08:53:29;36.40;;;25.03;;
14316;SDS011;7242;50.858;6.586;2022-12-01T08:56:32;36.23;;;24.10;;
14316;SDS011;7242;50.858;6.586;2022-12-01T08:59:35;43.40;;;27.07;;
14316;SDS011;7242;50.858;6.586;2022-12-01T09:02:36;39.67;;;25.93;;
14316;SDS011;7242;50.858;6.586;2022-12-01T09:05:37;37.50;;;24.43;;
14316;SDS011;7242;50.858;6.586;2022-12-01T09:08:39;35.73;;;24.67;;
14316;SDS011;7242;50.858;6.586;2022-12-01T09:11:41;37.67;;;23.60;;
14316;SDS011;7242;50.858;6.586;2022-12-01T09:14:45;35.83;;;22.73;;
14316;SDS011;7242;50.858;6.586;2022-12-01T09:17:48;38.13;;;23.50;;
14316;SDS011;7242;50.858;6.586;2022-12-01T09:20:49;33.57;;;22.67;;
14316;SDS011;7242;50.858;6.586;2022-12-01T09:23:51;32.80;;;22.40;;
14316;SDS011;7242;50.858;6.586;2022-12-01T09:26:58;31.73;;;22.03;;
14316;SDS011;7242;50.858;6.586;2022-12-01T09:29:59;36.13;;;22.87;;
14316;SDS011;7242;50.858;6.586;2022-12-01T09:33:00;34.97;;;22.93;;
14316;SDS011;7242;50.858;6.586;2022-12-01T09:36:01;39.10;;;24.37;;
14316;SDS011;7242;50.858;6.586;2022-12-01T09:39:05;36.07;;;22.77;;
14316;SDS011;7242;50.858;6.586;2022-12-01T09:42:10;33.73;;;22.83;;
14316;SDS011;7242;50.858;6.586;2022-12-01T09:45:20;38.13;;;24.37;;
14316;SDS011;7242;50.858;6.586;2022-12-01T09:48:30;38.13;;;24.00;;
14316;SDS011;7242;50.858;6.586;2022-12-01T09:51:42;36.27;;;24.00;;
14316;SDS011;7242;50.858;6.586;2022-12-01T09:54:44;35.13;;;23.83;;
14316;SDS011;7242;50.858;6.586;2022-12-01T09:57:48;36.63;;;24.90;;
14316;SDS011;7242;50.858;6.586;2022-12-01T10:00:50;39.77;;;25.70;;
14316;SDS011;7242;50.858;6.586;2022-12-01T10:03:54;44.27;;;27.40;;
14316;SDS011;7242;50.858;6.586;2022-12-01T10:10:00;39.33;;;24.67;;
14316;SDS011;7242;50.858;6.586;2022-12-01T10:13:07;39.23;;;24.17;;
14316;SDS011;7242;50.858;6.586;2022-12-01T10:16:23;40.13;;;23.90;;
14316;SDS011;7242;50.858;6.586;2022-12-01T10:32:12;37.30;;;23.10;;
14316;SDS011;7242;50.858;6.586;2022-12-01T10:35:23;36.60;;;22.43;;
14316;SDS011;7242;50.858;6.586;2022-12-01T10:38:29;31.70;;;21.73;;
14316;SDS011;7242;50.858;6.586;2022-12-01T10:41:35;41.07;;;22.53;;
14316;SDS011;7242;50.858;6.586;2022-12-01T10:44:38;36.13;;;23.40;;
14316;SDS011;7242;50.858;6.586;2022-12-01T10:48:05;36.20;;;23.23;;
14316;SDS011;7242;50.858;6.586;2022-12-01T10:51:14;39.37;;;24.87;;
14316;SDS011;7242;50.858;6.586;2022-12-01T10:54:16;39.47;;;25.23;;
14316;SDS011;7242;50.858;6.586;2022-12-01T10:57:18;39.83;;;23.90;;
14316;SDS011;7242;50.858;6.586;2022-12-01T11:00:20;39.17;;;24.27;;
14316;SDS011;7242;50.858;6.586;2022-12-01T11:03:26;37.70;;;24.40;;
14316;SDS011;7242;50.858;6.586;2022-12-01T11:06:33;37.00;;;22.57;;
14316;SDS011;7242;50.858;6.586;2022-12-01T11:09:34;38.97;;;23.90;;
14316;SDS011;7242;50.858;6.586;2022-12-01T11:12:35;39.10;;;24.03;;
14316;SDS011;7242;50.858;6.586;2022-12-01T11:15:38;38.67;;;23.87;;
14316;SDS011;7242;50.858;6.586;2022-12-01T11:18:40;35.03;;;23.37;;
14316;SDS011;7242;50.858;6.586;2022-12-01T11:21:49;43.87;;;24.23;;
14316;SDS011;7242;50.858;6.586;2022-12-01T11:27:53;37.07;;;23.97;;
14316;SDS011;7242;50.858;6.586;2022-12-01T11:31:02;35.03;;;22.83;;
14316;SDS011;7242;50.858;6.586;2022-12-01T11:37:24;36.10;;;23.30;;
14316;SDS011;7242;50.858;6.586;2022-12-01T11:40:29;33.77;;;23.07;;
14316;SDS011;7242;50.858;6.586;2022-12-01T11:43:47;35.07;;;23.00;;
14316;SDS011;7242;50.858;6.586;2022-12-01T11:46:48;33.17;;;21.70;;
14316;SDS011;7242;50.858;6.586;2022-12-01T11:50:22;37.27;;;23.00;;
14316;SDS011;7242;50.858;6.586;2022-12-01T11:53:28;33.93;;;22.47;;
14316;SDS011;7242;50.858;6.586;2022-12-01T11:56:34;33.53;;;22.40;;
14316;SDS011;7242;50.858;6.586;2022-12-01T11:59:36;34.53;;;22.17;;
14316;SDS011;7242;50.858;6.586;2022-12-01T12:02:40;30.63;;;20.40;;
14316;SDS011;7242;50.858;6.586;2022-12-01T12:16:06;30.53;;;19.13;;
14316;SDS011;7242;50.858;6.586;2022-12-01T12:22:33;29.57;;;19.57;;
14316;SDS011;7242;50.858;6.586;2022-12-01T12:26:03;23.53;;;17.07;;
14316;SDS011;7242;50.858;6.586;2022-12-01T12:29:28;27.20;;;17.87;;
14316;SDS011;7242;50.858;6.586;2022-12-01T12:42:33;29.27;;;19.53;;
14316;SDS011;7242;50.858;6.586;2022-12-01T12:49:02;26.90;;;17.97;;
14316;SDS011;7242;50.858;6.586;2022-12-01T12:52:33;25.63;;;18.10;;
14316;SDS011;7242;50.858;6.586;2022-12-01T12:55:44;25.60;;;18.50;;
14316;SDS011;7242;50.858;6.586;2022-12-01T12:58:54;27.07;;;19.40;;
14316;SDS011;7242;50.858;6.586;2022-12-01T13:08:27;27.17;;;18.67;;
14316;SDS011;7242;50.858;6.586;2022-12-01T13:12:00;27.27;;;18.83;;
14316;SDS011;7242;50.858;6.586;2022-12-01T13:15:15;26.00;;;19.30;;
14316;SDS011;7242;50.858;6.586;2022-12-01T13:21:35;26.77;;;18.80;;
14316;SDS011;7242;50.858;6.586;2022-12-01T13:24:38;25.43;;;19.00;;
14316;SDS011;7242;50.858;6.586;2022-12-01T13:27:40;26.00;;;18.30;;
14316;SDS011;7242;50.858;6.586;2022-12-01T13:30:55;27.80;;;19.17;;
14316;SDS011;7242;50.858;6.586;2022-12-01T13:34:03;27.37;;;19.57;;
14316;SDS011;7242;50.858;6.586;2022-12-01T13:37:05;30.63;;;20.93;;
14316;SDS011;7242;50.858;6.586;2022-12-01T13:40:29;26.20;;;20.33;;
14316;SDS011;7242;50.858;6.586;2022-12-01T13:43:30;29.03;;;21.03;;
14316;SDS011;7242;50.858;6.586;2022-12-01T13:49:46;28.33;;;20.70;;
14316;SDS011;7242;50.858;6.586;2022-12-01T13:52:49;27.07;;;20.83;;
14316;SDS011;7242;50.858;6.586;2022-12-01T13:59:03;32.50;;;22.50;;
14316;SDS011;7242;50.858;6.586;2022-12-01T14:02:42;29.67;;;21.87;;
14316;SDS011;7242;50.858;6.586;2022-12-01T14:05:53;30.33;;;21.70;;
14316;SDS011;7242;50.858;6.586;2022-12-01T14:08:59;32.30;;;22.93;;
14316;SDS011;7242;50.858;6.586;2022-12-01T14:12:05;31.10;;;22.00;;
14316;SDS011;7242;50.858;6.586;2022-12-01T14:21:45;34.10;;;23.37;;
14316;SDS011;7242;50.858;6.586;2022-12-01T14:24:50;34.40;;;22.93;;
14316;SDS011;7242;50.858;6.586;2022-12-01T14:27:53;32.93;;;23.60;;
14316;SDS011;7242;50.858;6.586;2022-12-01T14:30:58;35.33;;;24.13;;
14316;SDS011;7242;50.858;6.586;2022-12-01T14:37:04;34.40;;;23.83;;
14316;SDS011;7242;50.858;6.586;2022-12-01T14:40:12;34.70;;;23.87;;
14316;SDS011;7242;50.858;6.586;2022-12-01T14:43:17;35.60;;;23.80;;
14316;SDS011;7242;50.858;6.586;2022-12-01T14:46:47;36.13;;;24.57;;
14316;SDS011;7242;50.858;6.586;2022-12-01T14:49:57;32.20;;;22.20;;
14316;SDS011;7242;50.858;6.586;2022-12-01T14:53:07;43.23;;;27.30;;
14316;SDS011;7242;50.858;6.586;2022-12-01T14:56:23;37.97;;;26.20;;
14316;SDS011;7242;50.858;6.586;2022-12-01T14:59:25;46.30;;;28.87;;
14316;SDS011;7242;50.858;6.586;2022-12-01T15:02:27;40.67;;;26.97;;
14316;SDS011;7242;50.858;6.586;2022-12-01T15:05:29;41.87;;;28.63;;
14316;SDS011;7242;50.858;6.586;2022-12-01T15:08:32;42.10;;;28.00;;
14316;SDS011;7242;50.858;6.586;2022-12-01T15:11:34;43.47;;;27.53;;
14316;SDS011;7242;50.858;6.586;2022-12-01T15:14:36;43.87;;;29.10;;
14316;SDS011;7242;50.858;6.586;2022-12-01T15:17:38;41.93;;;28.57;;
14316;SDS011;7242;50.858;6.586;2022-12-01T15:20:39;42.37;;;27.67;;
14316;SDS011;7242;50.858;6.586;2022-12-01T15:27:01;41.17;;;27.97;;
14316;SDS011;7242;50.858;6.586;2022-12-01T15:30:02;40.43;;;27.87;;
14316;SDS011;7242;50.858;6.586;2022-12-01T15:33:04;39.27;;;27.80;;
14316;SDS011;7242;50.858;6.586;2022-12-01T15:36:07;44.37;;;28.93;;
14316;SDS011;7242;50.858;6.586;2022-12-01T15:39:11;42.17;;;28.33;;
14316;SDS011;7242;50.858;6.586;2022-12-01T15:42:20;43.13;;;29.13;;
14316;SDS011;7242;50.858;6.586;2022-12-01T15:45:22;47.60;;;30.23;;
14316;SDS011;7242;50.858;6.586;2022-12-01T15:48:29;47.13;;;30.10;;
14316;SDS011;7242;50.858;6.586;2022-12-01T15:51:32;47.33;;;29.97;;
14316;SDS011;7242;50.858;6.586;2022-12-01T15:54:33;45.87;;;30.37;;
14316;SDS011;7242;50.858;6.586;2022-12-01T15:57:35;49.50;;;31.90;;
14316;SDS011;7242;50.858;6.586;2022-12-01T16:00:36;49.33;;;32.23;;
14316;SDS011;7242;50.858;6.586;2022-12-01T16:03:51;46.23;;;31.37;;
14316;SDS011;7242;50.858;6.586;2022-12-01T16:09:58;52.47;;;33.30;;
14316;SDS011;7242;50.858;6.586;2022-12-01T16:16:48;52.10;;;32.97;;
14316;SDS011;7242;50.858;6.586;2022-12-01T16:20:24;51.37;;;33.30;;
14316;SDS011;7242;50.858;6.586;2022-12-01T16:23:22;53.60;;;34.00;;
14316;SDS011;7242;50.858;6.586;2022-12-01T16:26:25;56.97;;;36.50;;
14316;SDS011;7242;50.858;6.586;2022-12-01T16:29:27;58.17;;;35.97;;
14316;SDS011;7242;50.858;6.586;2022-12-01T16:32:37;55.80;;;35.87;;
14316;SDS011;7242;50.858;6.586;2022-12-01T16:35:40;55.87;;;36.50;;
14316;SDS011;7242;50.858;6.586;2022-12-01T16:38:41;55.70;;;36.90;;
14316;SDS011;7242;50.858;6.586;2022-12-01T16:41:42;52.73;;;35.83;;
14316;SDS011;7242;50.858;6.586;2022-12-01T16:44:45;52.07;;;35.73;;
14316;SDS011;7242;50.858;6.586;2022-12-01T16:47:47;52.80;;;36.03;;
14316;SDS011;7242;50.858;6.586;2022-12-01T16:50:49;58.90;;;37.30;;
14316;SDS011;7242;50.858;6.586;2022-12-01T16:53:53;54.07;;;35.93;;
14316;SDS011;7242;50.858;6.586;2022-12-01T16:56:55;52.33;;;34.83;;
14316;SDS011;7242;50.858;6.586;2022-12-01T16:59:56;53.23;;;34.70;;
14316;SDS011;7242;50.858;6.586;2022-12-01T17:02:57;49.10;;;34.90;;
14316;SDS011;7242;50.858;6.586;2022-12-01T17:06:00;48.97;;;33.03;;
14316;SDS011;7242;50.858;6.586;2022-12-01T17:09:01;46.10;;;32.37;;
14316;SDS011;7242;50.858;6.586;2022-12-01T17:12:03;45.90;;;31.93;;
14316;SDS011;7242;50.858;6.586;2022-12-01T17:15:04;41.30;;;30.17;;
14316;SDS011;7242;50.858;6.586;2022-12-01T17:18:05;44.73;;;31.60;;
14316;SDS011;7242;50.858;6.586;2022-12-01T17:21:08;42.93;;;30.13;;
14316;SDS011;7242;50.858;6.586;2022-12-01T17:24:10;41.63;;;28.93;;
14316;SDS011;7242;50.858;6.586;2022-12-01T17:27:11;45.90;;;31.00;;
14316;SDS011;7242;50.858;6.586;2022-12-01T17:30:12;41.93;;;30.43;;
14316;SDS011;7242;50.858;6.586;2022-12-01T17:33:13;42.40;;;30.20;;
14316;SDS011;7242;50.858;6.586;2022-12-01T17:36:14;43.30;;;31.67;;
14316;SDS011;7242;50.858;6.586;2022-12-01T17:39:16;50.23;;;34.20;;
14316;SDS011;7242;50.858;6.586;2022-12-01T17:42:18;49.33;;;33.77;;
14316;SDS011;7242;50.858;6.586;2022-12-01T17:45:19;49.97;;;35.00;;
14316;SDS011;7242;50.858;6.586;2022-12-01T17:48:21;50.77;;;35.20;;
14316;SDS011;7242;50.858;6.586;2022-12-01T17:51:22;56.13;;;39.37;;
14316;SDS011;7242;50.858;6.586;2022-12-01T17:54:23;58.17;;;39.27;;
14316;SDS011;7242;50.858;6.586;2022-12-01T17:57:24;62.90;;;40.57;;
14316;SDS011;7242;50.858;6.586;2022-12-01T18:00:26;58.70;;;40.27;;
14316;SDS011;7242;50.858;6.586;2022-12-01T18:03:27;61.47;;;41.10;;
14316;SDS011;7242;50.858;6.586;2022-12-01T18:06:28;58.63;;;40.53;;
14316;SDS011;7242;50.858;6.586;2022-12-01T18:09:29;59.80;;;39.23;;
14316;SDS011;7242;50.858;6.586;2022-12-01T18:12:32;58.37;;;39.93;;
14316;SDS011;7242;50.858;6.586;2022-12-01T18:15:34;58.20;;;39.50;;
14316;SDS011;7242;50.858;6.586;2022-12-01T18:18:35;54.73;;;38.93;;
14316;SDS011;7242;50.858;6.586;2022-12-01T18:21:36;53.37;;;38.23;;
14316;SDS011;7242;50.858;6.586;2022-12-01T18:24:38;53.47;;;38.17;;
14316;SDS011;7242;50.858;6.586;2022-12-01T18:27:42;57.27;;;39.27;;
14316;SDS011;7242;50.858;6.586;2022-12-01T18:30:43;52.83;;;38.50;;
14316;SDS011;7242;50.858;6.586;2022-12-01T18:33:45;57.23;;;38.67;;
14316;SDS011;7242;50.858;6.586;2022-12-01T18:36:46;61.57;;;41.67;;
14316;SDS011;7242;50.858;6.586;2022-12-01T18:39:48;59.70;;;40.70;;
14316;SDS011;7242;50.858;6.586;2022-12-01T18:42:49;57.73;;;39.17;;
14316;SDS011;7242;50.858;6.586;2022-12-01T18:45:50;54.97;;;39.37;;
14316;SDS011;7242;50.858;6.586;2022-12-01T18:48:52;63.13;;;40.53;;
14316;SDS011;7242;50.858;6.586;2022-12-01T18:51:59;59.17;;;40.07;;
14316;SDS011;7242;50.858;6.586;2022-12-01T18:55:02;58.43;;;38.93;;
14316;SDS011;7242;50.858;6.586;2022-12-01T18:58:04;54.60;;;38.23;;
14316;SDS011;7242;50.858;6.586;2022-12-01T19:01:22;54.80;;;37.00;;
14316;SDS011;7242;50.858;6.586;2022-12-01T19:04:25;56.10;;;37.53;;
14316;SDS011;7242;50.858;6.586;2022-12-01T19:07:26;57.00;;;38.53;;
14316;SDS011;7242;50.858;6.586;2022-12-01T19:10:27;56.67;;;37.90;;
14316;SDS011;7242;50.858;6.586;2022-12-01T19:13:30;57.37;;;37.00;;
14316;SDS011;7242;50.858;6.586;2022-12-01T19:16:31;55.57;;;37.97;;
14316;SDS011;7242;50.858;6.586;2022-12-01T19:19:33;56.83;;;37.27;;
14316;SDS011;7242;50.858;6.586;2022-12-01T19:22:35;56.87;;;37.40;;
14316;SDS011;7242;50.858;6.586;2022-12-01T19:25:36;51.27;;;36.17;;
14316;SDS011;7242;50.858;6.586;2022-12-01T19:28:38;56.10;;;38.23;;
14316;SDS011;7242;50.858;6.586;2022-12-01T19:31:41;52.80;;;36.97;;
14316;SDS011;7242;50.858;6.586;2022-12-01T19:34:42;54.03;;;36.57;;
14316;SDS011;7242;50.858;6.586;2022-12-01T19:37:44;53.07;;;35.53;;
14316;SDS011;7242;50.858;6.586;2022-12-01T19:40:45;53.77;;;36.70;;
14316;SDS011;7242;50.858;6.586;2022-12-01T19:43:46;52.40;;;36.67;;
14316;SDS011;7242;50.858;6.586;2022-12-01T19:46:48;54.87;;;37.27;;
14316;SDS011;7242;50.858;6.586;2022-12-01T19:49:49;52.93;;;36.33;;
14316;SDS011;7242;50.858;6.586;2022-12-01T19:52:50;54.57;;;35.43;;
14316;SDS011;7242;50.858;6.586;2022-12-01T19:55:51;55.73;;;37.00;;
14316;SDS011;7242;50.858;6.586;2022-12-01T19:58:52;58.00;;;37.60;;
14316;SDS011;7242;50.858;6.586;2022-12-01T20:01:54;58.87;;;37.30;;
14316;SDS011;7242;50.858;6.586;2022-12-01T20:04:54;56.60;;;37.80;;
14316;SDS011;7242;50.858;6.586;2022-12-01T20:07:56;57.70;;;38.57;;
14316;SDS011;7242;50.858;6.586;2022-12-01T20:10:58;58.87;;;38.73;;
14316;SDS011;7242;50.858;6.586;2022-12-01T20:14:01;62.13;;;40.53;;
14316;SDS011;7242;50.858;6.586;2022-12-01T20:17:03;59.03;;;39.17;;
14316;SDS011;7242;50.858;6.586;2022-12-01T20:20:05;59.00;;;38.80;;